sensor_id;sensor_type;location;lat;lon;timestamp;temperature;humidity
60039;DHT22;45916;52.734;6.544;2022-10-16T00:01:13;11.90;99.90
60039;DHT22;45916;52.734;6.544;2022-10-16T00:03:41;12.00;99.90
60039;DHT22;45916;52.734;6.544;2022-10-16T00:06:08;12.00;99.90
60039;DHT22;45916;52.734;6.544;2022-10-16T00:08:35;12.00;99.90
60039;DHT22;45916;52.734;6.544;2022-10-16T00:11:12;12.10;99.90
60039;DHT22;45916;52.734;6.544;2022-10-16T00:13:40;12.10;99.90
60039;DHT22;45916;52.734;6.544;2022-10-16T00:16:07;12.10;99.90
60039;DHT22;45916;52.734;6.544;2022-10-16T00:18:33;12.20;99.90
60039;DHT22;45916;52.734;6.544;2022-10-16T00:21:11;12.20;99.90
60039;DHT22;45916;52.734;6.544;2022-10-16T00:23:37;12.20;99.90
60039;DHT22;45916;52.734;6.544;2022-10-16T00:26:06;12.10;99.90
60039;DHT22;45916;52.734;6.544;2022-10-16T00:28:32;12.10;99.90
60039;DHT22;45916;52.734;6.544;2022-10-16T00:30:58;12.00;99.90
60039;DHT22;45916;52.734;6.544;2022-10-16T00:33:24;12.00;99.90
60039;DHT22;45916;52.734;6.544;2022-10-16T00:35:50;12.00;99.90
60039;DHT22;45916;52.734;6.544;2022-10-16T00:38:16;12.00;99.90
60039;DHT22;45916;52.734;6.544;2022-10-16T00:40:42;11.90;99.90
60039;DHT22;45916;52.734;6.544;2022-10-16T00:46:02;11.80;99.90
60039;DHT22;45916;52.734;6.544;2022-10-16T00:48:29;11.80;99.90
60039;DHT22;45916;52.734;6.544;2022-10-16T00:50:56;11.80;99.90
60039;DHT22;45916;52.734;6.544;2022-10-16T00:53:24;11.70;99.90
60039;DHT22;45916;52.734;6.544;2022-10-16T00:55:50;11.70;99.90
60039;DHT22;45916;52.734;6.544;2022-10-16T00:58:16;11.70;99.90
60039;DHT22;45916;52.734;6.544;2022-10-16T01:00:41;11.70;99.90
60039;DHT22;45916;52.734;6.544;2022-10-16T01:03:28;11.70;99.90
60039;DHT22;45916;52.734;6.544;2022-10-16T01:06:05;11.70;99.90
60039;DHT22;45916;52.734;6.544;2022-10-16T01:08:49;11.60;99.90
60039;DHT22;45916;52.734;6.544;2022-10-16T01:11:25;11.70;99.90
60039;DHT22;45916;52.734;6.544;2022-10-16T01:13:55;11.70;99.90
60039;DHT22;45916;52.734;6.544;2022-10-16T01:16:48;11.70;99.90
60039;DHT22;45916;52.734;6.544;2022-10-16T01:19:25;11.70;99.90
60039;DHT22;45916;52.734;6.544;2022-10-16T01:21:55;11.70;99.90
60039;DHT22;45916;52.734;6.544;2022-10-16T01:27:08;11.70;99.90
60039;DHT22;45916;52.734;6.544;2022-10-16T01:35:32;11.80;99.90
60039;DHT22;45916;52.734;6.544;2022-10-16T01:40:39;11.80;99.90
60039;DHT22;45916;52.734;6.544;2022-10-16T01:43:14;11.80;99.90
60039;DHT22;45916;52.734;6.544;2022-10-16T01:45:41;11.80;99.90
60039;DHT22;45916;52.734;6.544;2022-10-16T01:48:07;11.90;99.90
60039;DHT22;45916;52.734;6.544;2022-10-16T01:50:37;11.90;99.90
60039;DHT22;45916;52.734;6.544;2022-10-16T01:53:05;12.00;99.90
60039;DHT22;45916;52.734;6.544;2022-10-16T01:55:35;12.00;99.90
60039;DHT22;45916;52.734;6.544;2022-10-16T01:58:03;12.10;99.90
60039;DHT22;45916;52.734;6.544;2022-10-16T02:00:31;12.10;99.90
60039;DHT22;45916;52.734;6.544;2022-10-16T02:02:58;12.10;99.90
60039;DHT22;45916;52.734;6.544;2022-10-16T02:05:37;12.20;99.90
60039;DHT22;45916;52.734;6.544;2022-10-16T02:08:04;12.20;99.90
60039;DHT22;45916;52.734;6.544;2022-10-16T02:10:30;12.20;99.90
60039;DHT22;45916;52.734;6.544;2022-10-16T02:13:22;12.20;99.90
60039;DHT22;45916;52.734;6.544;2022-10-16T02:15:48;12.30;99.90
60039;DHT22;45916;52.734;6.544;2022-10-16T02:18:14;12.30;99.90
60039;DHT22;45916;52.734;6.544;2022-10-16T02:20:53;12.40;99.90
60039;DHT22;45916;52.734;6.544;2022-10-16T02:23:37;12.40;99.90
60039;DHT22;45916;52.734;6.544;2022-10-16T02:26:09;12.40;99.90
60039;DHT22;45916;52.734;6.544;2022-10-16T02:28:46;12.40;99.90
60039;DHT22;45916;52.734;6.544;2022-10-16T02:31:18;12.50;99.90
60039;DHT22;45916;52.734;6.544;2022-10-16T02:33:46;12.60;99.90
60039;DHT22;45916;52.734;6.544;2022-10-16T02:36:12;12.60;99.90
60039;DHT22;45916;52.734;6.544;2022-10-16T02:38:40;12.70;99.90
60039;DHT22;45916;52.734;6.544;2022-10-16T02:41:06;12.70;99.90
60039;DHT22;45916;52.734;6.544;2022-10-16T02:43:32;12.70;99.90
60039;DHT22;45916;52.734;6.544;2022-10-16T02:45:59;12.80;99.90
60039;DHT22;45916;52.734;6.544;2022-10-16T02:48:25;12.80;99.90
60039;DHT22;45916;52.734;6.544;2022-10-16T02:50:51;12.80;99.90
60039;DHT22;45916;52.734;6.544;2022-10-16T02:53:16;12.80;99.90
60039;DHT22;45916;52.734;6.544;2022-10-16T02:55:42;12.80;99.90
60039;DHT22;45916;52.734;6.544;2022-10-16T02:58:09;12.80;99.90
60039;DHT22;45916;52.734;6.544;2022-10-16T03:00:34;12.80;99.90
60039;DHT22;45916;52.734;6.544;2022-10-16T03:03:00;12.70;99.90
60039;DHT22;45916;52.734;6.544;2022-10-16T03:05:26;12.80;99.90
60039;DHT22;45916;52.734;6.544;2022-10-16T03:07:51;12.80;99.90
60039;DHT22;45916;52.734;6.544;2022-10-16T03:10:18;12.90;99.90
60039;DHT22;45916;52.734;6.544;2022-10-16T03:12:43;12.80;99.90
60039;DHT22;45916;52.734;6.544;2022-10-16T03:15:09;12.90;99.90
60039;DHT22;45916;52.734;6.544;2022-10-16T03:17:35;12.90;99.90
60039;DHT22;45916;52.734;6.544;2022-10-16T03:20:02;12.80;99.90
60039;DHT22;45916;52.734;6.544;2022-10-16T03:22:28;12.90;99.90
60039;DHT22;45916;52.734;6.544;2022-10-16T03:24:54;12.90;99.90
60039;DHT22;45916;52.734;6.544;2022-10-16T03:27:20;12.90;99.90
60039;DHT22;45916;52.734;6.544;2022-10-16T03:29:46;12.90;99.90
60039;DHT22;45916;52.734;6.544;2022-10-16T03:32:11;12.80;99.90
60039;DHT22;45916;52.734;6.544;2022-10-16T03:34:37;12.80;99.90
60039;DHT22;45916;52.734;6.544;2022-10-16T03:37:03;12.80;99.90
60039;DHT22;45916;52.734;6.544;2022-10-16T03:39:29;12.80;99.90
60039;DHT22;45916;52.734;6.544;2022-10-16T03:41:54;12.70;99.90
60039;DHT22;45916;52.734;6.544;2022-10-16T03:44:20;12.70;99.90
60039;DHT22;45916;52.734;6.544;2022-10-16T03:46:46;12.70;99.90
60039;DHT22;45916;52.734;6.544;2022-10-16T03:49:12;12.70;99.90
60039;DHT22;45916;52.734;6.544;2022-10-16T03:51:38;12.70;99.90
60039;DHT22;45916;52.734;6.544;2022-10-16T03:54:04;12.70;99.90
60039;DHT22;45916;52.734;6.544;2022-10-16T03:56:29;12.70;99.90
60039;DHT22;45916;52.734;6.544;2022-10-16T03:58:55;12.70;99.90
60039;DHT22;45916;52.734;6.544;2022-10-16T04:01:20;12.70;99.90
60039;DHT22;45916;52.734;6.544;2022-10-16T04:03:46;12.60;99.90
60039;DHT22;45916;52.734;6.544;2022-10-16T04:06:12;12.60;99.90
60039;DHT22;45916;52.734;6.544;2022-10-16T04:08:37;12.50;99.90
60039;DHT22;45916;52.734;6.544;2022-10-16T04:11:04;12.40;99.90
60039;DHT22;45916;52.734;6.544;2022-10-16T04:13:30;12.30;99.90
60039;DHT22;45916;52.734;6.544;2022-10-16T04:15:56;12.20;99.90
60039;DHT22;45916;52.734;6.544;2022-10-16T04:18:22;12.20;99.90
60039;DHT22;45916;52.734;6.544;2022-10-16T04:20:48;12.10;99.90
60039;DHT22;45916;52.734;6.544;2022-10-16T04:23:14;12.10;99.90
60039;DHT22;45916;52.734;6.544;2022-10-16T04:25:39;12.10;99.90
60039;DHT22;45916;52.734;6.544;2022-10-16T04:28:05;12.10;99.90
60039;DHT22;45916;52.734;6.544;2022-10-16T04:30:31;12.10;99.90
60039;DHT22;45916;52.734;6.544;2022-10-16T04:32:58;12.00;99.90
60039;DHT22;45916;52.734;6.544;2022-10-16T04:35:24;12.00;99.90
60039;DHT22;45916;52.734;6.544;2022-10-16T04:37:50;12.00;99.90
60039;DHT22;45916;52.734;6.544;2022-10-16T04:40:16;12.00;99.90
60039;DHT22;45916;52.734;6.544;2022-10-16T04:42:42;12.00;99.90
60039;DHT22;45916;52.734;6.544;2022-10-16T04:45:08;12.10;99.90
60039;DHT22;45916;52.734;6.544;2022-10-16T04:47:33;12.10;99.90
60039;DHT22;45916;52.734;6.544;2022-10-16T04:49:59;12.20;99.90
60039;DHT22;45916;52.734;6.544;2022-10-16T04:52:26;12.10;99.90
60039;DHT22;45916;52.734;6.544;2022-10-16T04:54:52;12.10;99.90
60039;DHT22;45916;52.734;6.544;2022-10-16T04:57:19;12.10;99.90
60039;DHT22;45916;52.734;6.544;2022-10-16T04:59:44;12.10;99.90
60039;DHT22;45916;52.734;6.544;2022-10-16T05:02:10;12.20;99.90
60039;DHT22;45916;52.734;6.544;2022-10-16T05:04:36;12.20;99.90
60039;DHT22;45916;52.734;6.544;2022-10-16T05:07:01;12.20;99.90
60039;DHT22;45916;52.734;6.544;2022-10-16T05:09:27;12.10;99.90
60039;DHT22;45916;52.734;6.544;2022-10-16T05:11:53;12.00;99.90
60039;DHT22;45916;52.734;6.544;2022-10-16T05:14:18;12.00;99.90
60039;DHT22;45916;52.734;6.544;2022-10-16T05:16:44;11.90;99.90
60039;DHT22;45916;52.734;6.544;2022-10-16T05:19:10;11.90;99.90
60039;DHT22;45916;52.734;6.544;2022-10-16T05:21:36;11.80;99.90
60039;DHT22;45916;52.734;6.544;2022-10-16T05:24:01;11.80;99.90
60039;DHT22;45916;52.734;6.544;2022-10-16T05:26:27;11.70;99.90
60039;DHT22;45916;52.734;6.544;2022-10-16T05:28:52;11.70;99.90
60039;DHT22;45916;52.734;6.544;2022-10-16T05:31:18;11.70;99.90
60039;DHT22;45916;52.734;6.544;2022-10-16T05:33:44;11.70;99.90
60039;DHT22;45916;52.734;6.544;2022-10-16T05:36:10;11.60;99.90
60039;DHT22;45916;52.734;6.544;2022-10-16T05:38:36;11.60;99.90
60039;DHT22;45916;52.734;6.544;2022-10-16T05:41:04;11.60;99.90
60039;DHT22;45916;52.734;6.544;2022-10-16T05:43:30;11.60;99.90
60039;DHT22;45916;52.734;6.544;2022-10-16T05:45:57;11.70;99.90
60039;DHT22;45916;52.734;6.544;2022-10-16T05:48:23;11.70;99.90
60039;DHT22;45916;52.734;6.544;2022-10-16T05:51:04;11.70;99.90
60039;DHT22;45916;52.734;6.544;2022-10-16T05:53:32;11.70;99.90
60039;DHT22;45916;52.734;6.544;2022-10-16T05:55:58;11.70;99.90
60039;DHT22;45916;52.734;6.544;2022-10-16T05:58:24;11.60;99.90
60039;DHT22;45916;52.734;6.544;2022-10-16T06:00:59;11.60;99.90
60039;DHT22;45916;52.734;6.544;2022-10-16T06:03:25;11.60;99.90
60039;DHT22;45916;52.734;6.544;2022-10-16T06:05:51;11.60;99.90
60039;DHT22;45916;52.734;6.544;2022-10-16T06:08:18;11.60;99.90
60039;DHT22;45916;52.734;6.544;2022-10-16T06:10:45;11.60;99.90
60039;DHT22;45916;52.734;6.544;2022-10-16T06:13:12;11.70;99.90
60039;DHT22;45916;52.734;6.544;2022-10-16T06:15:38;11.70;99.90
60039;DHT22;45916;52.734;6.544;2022-10-16T06:18:05;11.70;99.90
60039;DHT22;45916;52.734;6.544;2022-10-16T06:20:31;11.70;99.90
60039;DHT22;45916;52.734;6.544;2022-10-16T06:22:57;11.70;99.90
60039;DHT22;45916;52.734;6.544;2022-10-16T06:25:23;11.70;99.90
60039;DHT22;45916;52.734;6.544;2022-10-16T06:27:48;11.80;99.90
60039;DHT22;45916;52.734;6.544;2022-10-16T06:30:14;11.90;99.90
60039;DHT22;45916;52.734;6.544;2022-10-16T06:32:40;11.90;99.90
60039;DHT22;45916;52.734;6.544;2022-10-16T06:35:05;12.00;99.90
60039;DHT22;45916;52.734;6.544;2022-10-16T06:37:31;12.00;99.90
60039;DHT22;45916;52.734;6.544;2022-10-16T06:39:57;12.20;99.90
60039;DHT22;45916;52.734;6.544;2022-10-16T06:42:22;12.20;99.90
60039;DHT22;45916;52.734;6.544;2022-10-16T06:44:48;12.30;99.90
60039;DHT22;45916;52.734;6.544;2022-10-16T06:47:14;12.40;99.90
60039;DHT22;45916;52.734;6.544;2022-10-16T06:49:39;12.40;99.90
60039;DHT22;45916;52.734;6.544;2022-10-16T06:52:05;12.50;99.90
60039;DHT22;45916;52.734;6.544;2022-10-16T06:54:31;12.60;99.90
60039;DHT22;45916;52.734;6.544;2022-10-16T06:56:56;12.80;99.90
60039;DHT22;45916;52.734;6.544;2022-10-16T06:59:22;12.90;99.90
60039;DHT22;45916;52.734;6.544;2022-10-16T07:01:48;13.10;99.90
60039;DHT22;45916;52.734;6.544;2022-10-16T07:04:14;13.30;99.90
60039;DHT22;45916;52.734;6.544;2022-10-16T07:06:39;13.40;99.90
60039;DHT22;45916;52.734;6.544;2022-10-16T07:09:07;13.50;99.90
60039;DHT22;45916;52.734;6.544;2022-10-16T07:11:34;13.70;99.90
60039;DHT22;45916;52.734;6.544;2022-10-16T07:14:02;13.80;99.90
60039;DHT22;45916;52.734;6.544;2022-10-16T07:16:29;13.80;99.90
60039;DHT22;45916;52.734;6.544;2022-10-16T07:18:57;13.80;99.90
60039;DHT22;45916;52.734;6.544;2022-10-16T07:21:31;13.80;99.90
60039;DHT22;45916;52.734;6.544;2022-10-16T07:24:01;13.80;99.90
60039;DHT22;45916;52.734;6.544;2022-10-16T07:26:29;13.90;99.90
60039;DHT22;45916;52.734;6.544;2022-10-16T07:28:56;14.40;99.90
60039;DHT22;45916;52.734;6.544;2022-10-16T07:31:23;14.80;99.90
60039;DHT22;45916;52.734;6.544;2022-10-16T07:33:49;15.10;99.90
60039;DHT22;45916;52.734;6.544;2022-10-16T07:36:16;15.20;99.90
60039;DHT22;45916;52.734;6.544;2022-10-16T07:38:43;15.30;99.90
60039;DHT22;45916;52.734;6.544;2022-10-16T07:41:11;15.30;99.90
60039;DHT22;45916;52.734;6.544;2022-10-16T07:43:37;15.40;99.90
60039;DHT22;45916;52.734;6.544;2022-10-16T07:46:03;15.30;99.90
60039;DHT22;45916;52.734;6.544;2022-10-16T07:48:31;15.30;99.90
60039;DHT22;45916;52.734;6.544;2022-10-16T07:51:05;15.20;99.90
60039;DHT22;45916;52.734;6.544;2022-10-16T07:53:32;15.20;99.90
60039;DHT22;45916;52.734;6.544;2022-10-16T07:56:02;15.10;99.90
60039;DHT22;45916;52.734;6.544;2022-10-16T07:58:28;15.20;99.90
60039;DHT22;45916;52.734;6.544;2022-10-16T08:00:55;15.20;99.90
60039;DHT22;45916;52.734;6.544;2022-10-16T08:03:22;15.20;99.90
60039;DHT22;45916;52.734;6.544;2022-10-16T08:05:48;15.20;99.90
60039;DHT22;45916;52.734;6.544;2022-10-16T08:08:14;15.30;99.90
60039;DHT22;45916;52.734;6.544;2022-10-16T08:10:41;15.40;99.90
60039;DHT22;45916;52.734;6.544;2022-10-16T08:13:07;15.60;99.90
60039;DHT22;45916;52.734;6.544;2022-10-16T08:15:32;15.70;99.90
60039;DHT22;45916;52.734;6.544;2022-10-16T08:18:01;15.80;99.90
60039;DHT22;45916;52.734;6.544;2022-10-16T08:20:27;15.80;99.90
60039;DHT22;45916;52.734;6.544;2022-10-16T08:22:54;15.90;99.90
60039;DHT22;45916;52.734;6.544;2022-10-16T08:25:21;15.90;99.90
60039;DHT22;45916;52.734;6.544;2022-10-16T08:27:47;16.00;99.90
60039;DHT22;45916;52.734;6.544;2022-10-16T08:30:13;16.20;99.90
60039;DHT22;45916;52.734;6.544;2022-10-16T08:32:39;16.50;99.90
60039;DHT22;45916;52.734;6.544;2022-10-16T08:35:07;17.10;99.90
60039;DHT22;45916;52.734;6.544;2022-10-16T08:37:32;18.10;99.90
60039;DHT22;45916;52.734;6.544;2022-10-16T08:40:05;18.50;99.90
60039;DHT22;45916;52.734;6.544;2022-10-16T08:42:41;18.80;99.90
60039;DHT22;45916;52.734;6.544;2022-10-16T08:51:06;19.60;99.90
60039;DHT22;45916;52.734;6.544;2022-10-16T08:53:38;20.70;99.90
60039;DHT22;45916;52.734;6.544;2022-10-16T08:56:06;21.20;99.90
60039;DHT22;45916;52.734;6.544;2022-10-16T08:58:31;23.00;99.90
60039;DHT22;45916;52.734;6.544;2022-10-16T09:01:01;24.80;99.90
60039;DHT22;45916;52.734;6.544;2022-10-16T09:20:12;30.80;60.10
60039;DHT22;45916;52.734;6.544;2022-10-16T09:22:38;31.10;58.80
60039;DHT22;45916;52.734;6.544;2022-10-16T09:25:20;31.20;58.10
60039;DHT22;45916;52.734;6.544;2022-10-16T09:27:48;31.60;58.00
60039;DHT22;45916;52.734;6.544;2022-10-16T09:30:18;32.20;55.80
60039;DHT22;45916;52.734;6.544;2022-10-16T09:32:47;32.20;54.50
60039;DHT22;45916;52.734;6.544;2022-10-16T09:35:22;32.40;52.90
60039;DHT22;45916;52.734;6.544;2022-10-16T09:37:51;32.30;51.60
60039;DHT22;45916;52.734;6.544;2022-10-16T09:40:27;32.60;52.40
60039;DHT22;45916;52.734;6.544;2022-10-16T09:46:00;33.20;51.60
60039;DHT22;45916;52.734;6.544;2022-10-16T09:48:39;33.00;50.10
60039;DHT22;45916;52.734;6.544;2022-10-16T09:51:19;32.80;50.60
60039;DHT22;45916;52.734;6.544;2022-10-16T09:53:46;33.10;50.90
60039;DHT22;45916;52.734;6.544;2022-10-16T09:56:23;33.00;50.00
60039;DHT22;45916;52.734;6.544;2022-10-16T09:58:53;33.00;49.90
60039;DHT22;45916;52.734;6.544;2022-10-16T10:01:21;32.90;50.00
60039;DHT22;45916;52.734;6.544;2022-10-16T10:03:48;32.70;50.00
60039;DHT22;45916;52.734;6.544;2022-10-16T10:06:22;32.50;49.20
60039;DHT22;45916;52.734;6.544;2022-10-16T10:09:24;32.00;49.00
60039;DHT22;45916;52.734;6.544;2022-10-16T10:12:04;31.90;50.90
60039;DHT22;45916;52.734;6.544;2022-10-16T10:14:44;31.40;50.80
60039;DHT22;45916;52.734;6.544;2022-10-16T10:19:47;30.20;53.20
60039;DHT22;45916;52.734;6.544;2022-10-16T10:30:46;26.70;54.50
60039;DHT22;45916;52.734;6.544;2022-10-16T10:33:34;25.40;57.00
60039;DHT22;45916;52.734;6.544;2022-10-16T10:38:50;23.60;62.40
60039;DHT22;45916;52.734;6.544;2022-10-16T10:49:20;23.00;67.00
60039;DHT22;45916;52.734;6.544;2022-10-16T11:05:59;22.20;70.10
60039;DHT22;45916;52.734;6.544;2022-10-16T11:08:41;21.80;68.70
60039;DHT22;45916;52.734;6.544;2022-10-16T11:17:04;20.00;73.80
60039;DHT22;45916;52.734;6.544;2022-10-16T11:19:39;19.60;76.50
60039;DHT22;45916;52.734;6.544;2022-10-16T11:22:23;19.40;79.60
60039;DHT22;45916;52.734;6.544;2022-10-16T11:24:59;19.40;84.20
60039;DHT22;45916;52.734;6.544;2022-10-16T11:30:22;19.40;90.70
60039;DHT22;45916;52.734;6.544;2022-10-16T11:35:43;19.60;97.20
60039;DHT22;45916;52.734;6.544;2022-10-16T11:41:11;19.80;98.10
60039;DHT22;45916;52.734;6.544;2022-10-16T11:43:43;19.90;99.90
60039;DHT22;45916;52.734;6.544;2022-10-16T11:46:20;19.80;99.90
60039;DHT22;45916;52.734;6.544;2022-10-16T11:49:15;19.70;99.60
60039;DHT22;45916;52.734;6.544;2022-10-16T11:51:48;19.50;99.30
60039;DHT22;45916;52.734;6.544;2022-10-16T11:57:09;19.50;99.90
60039;DHT22;45916;52.734;6.544;2022-10-16T11:59:46;19.50;99.90
60039;DHT22;45916;52.734;6.544;2022-10-16T12:05:25;19.70;99.90
60039;DHT22;45916;52.734;6.544;2022-10-16T12:07:59;19.70;99.90
60039;DHT22;45916;52.734;6.544;2022-10-16T12:10:29;19.70;99.90
60039;DHT22;45916;52.734;6.544;2022-10-16T12:12:57;20.00;99.90
60039;DHT22;45916;52.734;6.544;2022-10-16T12:15:27;19.90;99.90
60039;DHT22;45916;52.734;6.544;2022-10-16T12:17:53;19.80;99.50
60039;DHT22;45916;52.734;6.544;2022-10-16T12:20:37;19.60;99.10
60039;DHT22;45916;52.734;6.544;2022-10-16T12:23:07;19.50;99.90
60039;DHT22;45916;52.734;6.544;2022-10-16T12:25:57;19.50;99.90
60039;DHT22;45916;52.734;6.544;2022-10-16T12:28:29;19.70;99.90
60039;DHT22;45916;52.734;6.544;2022-10-16T12:31:07;19.70;99.90
60039;DHT22;45916;52.734;6.544;2022-10-16T12:33:36;19.60;99.30
60039;DHT22;45916;52.734;6.544;2022-10-16T12:36:05;19.40;99.90
60039;DHT22;45916;52.734;6.544;2022-10-16T12:38:50;19.40;99.90
60039;DHT22;45916;52.734;6.544;2022-10-16T12:41:36;19.20;99.90
60039;DHT22;45916;52.734;6.544;2022-10-16T12:44:20;19.10;99.90
60039;DHT22;45916;52.734;6.544;2022-10-16T12:46:46;19.10;99.90
60039;DHT22;45916;52.734;6.544;2022-10-16T12:51:37;18.80;99.90
60039;DHT22;45916;52.734;6.544;2022-10-16T12:56:55;19.00;99.90
60039;DHT22;45916;52.734;6.544;2022-10-16T13:09:04;19.10;98.50
60039;DHT22;45916;52.734;6.544;2022-10-16T13:17:20;18.30;99.90
60039;DHT22;45916;52.734;6.544;2022-10-16T13:23:02;18.10;99.90
60039;DHT22;45916;52.734;6.544;2022-10-16T13:28:33;17.90;99.90
60039;DHT22;45916;52.734;6.544;2022-10-16T13:31:01;17.90;99.90
60039;DHT22;45916;52.734;6.544;2022-10-16T13:35:57;17.90;99.90
60039;DHT22;45916;52.734;6.544;2022-10-16T13:38:34;17.90;99.90
60039;DHT22;45916;52.734;6.544;2022-10-16T13:41:06;17.90;99.90
60039;DHT22;45916;52.734;6.544;2022-10-16T13:46:17;17.80;99.90
60039;DHT22;45916;52.734;6.544;2022-10-16T13:48:43;17.80;99.90
60039;DHT22;45916;52.734;6.544;2022-10-16T13:51:14;17.70;99.90
60039;DHT22;45916;52.734;6.544;2022-10-16T13:53:41;17.70;99.90
60039;DHT22;45916;52.734;6.544;2022-10-16T13:56:13;17.60;99.90
60039;DHT22;45916;52.734;6.544;2022-10-16T13:58:39;17.60;99.90
60039;DHT22;45916;52.734;6.544;2022-10-16T14:01:19;17.60;99.90
60039;DHT22;45916;52.734;6.544;2022-10-16T14:03:46;17.50;99.90
60039;DHT22;45916;52.734;6.544;2022-10-16T14:06:16;17.50;99.90
60039;DHT22;45916;52.734;6.544;2022-10-16T14:08:46;17.50;99.90
60039;DHT22;45916;52.734;6.544;2022-10-16T14:11:23;17.50;99.90
60039;DHT22;45916;52.734;6.544;2022-10-16T14:13:50;17.40;99.90
60039;DHT22;45916;52.734;6.544;2022-10-16T14:16:29;17.30;99.90
60039;DHT22;45916;52.734;6.544;2022-10-16T14:19:04;17.30;99.90
60039;DHT22;45916;52.734;6.544;2022-10-16T14:21:35;17.20;99.90
60039;DHT22;45916;52.734;6.544;2022-10-16T14:24:13;17.20;99.90
60039;DHT22;45916;52.734;6.544;2022-10-16T14:26:43;17.10;99.90
60039;DHT22;45916;52.734;6.544;2022-10-16T14:29:14;17.10;99.90
60039;DHT22;45916;52.734;6.544;2022-10-16T14:31:41;17.10;99.90
60039;DHT22;45916;52.734;6.544;2022-10-16T14:34:30;17.00;99.90
60039;DHT22;45916;52.734;6.544;2022-10-16T14:37:00;17.00;99.90
60039;DHT22;45916;52.734;6.544;2022-10-16T14:39:27;16.90;99.90
60039;DHT22;45916;52.734;6.544;2022-10-16T14:41:57;16.90;99.90
60039;DHT22;45916;52.734;6.544;2022-10-16T14:44:33;16.90;99.90
60039;DHT22;45916;52.734;6.544;2022-10-16T14:47:12;17.00;99.90
60039;DHT22;45916;52.734;6.544;2022-10-16T14:49:38;17.00;99.90
60039;DHT22;45916;52.734;6.544;2022-10-16T14:52:14;17.10;99.90
60039;DHT22;45916;52.734;6.544;2022-10-16T14:54:40;17.10;99.90
60039;DHT22;45916;52.734;6.544;2022-10-16T14:57:19;17.10;99.90
60039;DHT22;45916;52.734;6.544;2022-10-16T14:59:46;17.10;99.90
60039;DHT22;45916;52.734;6.544;2022-10-16T15:02:25;17.10;99.90
60039;DHT22;45916;52.734;6.544;2022-10-16T15:04:52;17.10;99.90
60039;DHT22;45916;52.734;6.544;2022-10-16T15:07:18;17.10;99.90
60039;DHT22;45916;52.734;6.544;2022-10-16T15:09:44;17.00;99.90
60039;DHT22;45916;52.734;6.544;2022-10-16T15:12:10;17.00;99.90
60039;DHT22;45916;52.734;6.544;2022-10-16T15:14:35;17.00;99.90
60039;DHT22;45916;52.734;6.544;2022-10-16T15:17:02;16.90;99.90
60039;DHT22;45916;52.734;6.544;2022-10-16T15:19:27;16.80;99.90
60039;DHT22;45916;52.734;6.544;2022-10-16T15:21:53;16.80;99.90
60039;DHT22;45916;52.734;6.544;2022-10-16T15:24:19;16.70;99.90
60039;DHT22;45916;52.734;6.544;2022-10-16T15:26:45;16.70;99.90
60039;DHT22;45916;52.734;6.544;2022-10-16T15:29:15;16.60;99.90
60039;DHT22;45916;52.734;6.544;2022-10-16T15:31:41;16.60;99.90
60039;DHT22;45916;52.734;6.544;2022-10-16T15:34:09;16.50;99.90
60039;DHT22;45916;52.734;6.544;2022-10-16T15:36:37;16.50;99.90
60039;DHT22;45916;52.734;6.544;2022-10-16T15:39:04;16.40;99.90
60039;DHT22;45916;52.734;6.544;2022-10-16T15:41:30;16.40;99.90
60039;DHT22;45916;52.734;6.544;2022-10-16T15:43:56;16.30;99.90
60039;DHT22;45916;52.734;6.544;2022-10-16T15:46:23;16.20;99.90
60039;DHT22;45916;52.734;6.544;2022-10-16T15:48:50;16.20;99.90
60039;DHT22;45916;52.734;6.544;2022-10-16T15:51:18;16.10;99.90
60039;DHT22;45916;52.734;6.544;2022-10-16T15:53:44;16.00;99.90
60039;DHT22;45916;52.734;6.544;2022-10-16T15:56:12;15.90;99.90
60039;DHT22;45916;52.734;6.544;2022-10-16T15:58:38;15.90;99.90
60039;DHT22;45916;52.734;6.544;2022-10-16T16:01:04;15.70;99.90
60039;DHT22;45916;52.734;6.544;2022-10-16T16:03:32;15.60;99.90
60039;DHT22;45916;52.734;6.544;2022-10-16T16:05:58;15.50;99.90
60039;DHT22;45916;52.734;6.544;2022-10-16T16:08:24;15.30;99.90
60039;DHT22;45916;52.734;6.544;2022-10-16T16:13:28;15.00;99.90
60039;DHT22;45916;52.734;6.544;2022-10-16T16:15:54;14.90;99.90
60039;DHT22;45916;52.734;6.544;2022-10-16T16:18:20;14.70;99.90
60039;DHT22;45916;52.734;6.544;2022-10-16T16:20:46;14.50;99.90
60039;DHT22;45916;52.734;6.544;2022-10-16T16:23:12;14.40;99.90
60039;DHT22;45916;52.734;6.544;2022-10-16T16:25:37;14.30;99.90
60039;DHT22;45916;52.734;6.544;2022-10-16T16:28:03;14.20;99.90
60039;DHT22;45916;52.734;6.544;2022-10-16T16:30:29;14.10;99.90
60039;DHT22;45916;52.734;6.544;2022-10-16T16:32:55;14.00;99.90
60039;DHT22;45916;52.734;6.544;2022-10-16T16:35:21;14.00;99.90
60039;DHT22;45916;52.734;6.544;2022-10-16T16:37:47;13.90;99.90
60039;DHT22;45916;52.734;6.544;2022-10-16T16:40:13;13.80;99.90
60039;DHT22;45916;52.734;6.544;2022-10-16T16:42:38;13.70;99.90
60039;DHT22;45916;52.734;6.544;2022-10-16T16:45:05;13.60;99.90
60039;DHT22;45916;52.734;6.544;2022-10-16T16:47:31;13.50;99.90
60039;DHT22;45916;52.734;6.544;2022-10-16T16:49:56;13.40;99.90
60039;DHT22;45916;52.734;6.544;2022-10-16T16:52:22;13.30;99.90
60039;DHT22;45916;52.734;6.544;2022-10-16T16:54:48;13.20;99.90
60039;DHT22;45916;52.734;6.544;2022-10-16T16:57:20;13.10;99.90
60039;DHT22;45916;52.734;6.544;2022-10-16T16:59:46;13.10;99.90
60039;DHT22;45916;52.734;6.544;2022-10-16T17:02:12;13.00;99.90
60039;DHT22;45916;52.734;6.544;2022-10-16T17:04:37;12.90;99.90
60039;DHT22;45916;52.734;6.544;2022-10-16T17:07:03;12.90;99.90
60039;DHT22;45916;52.734;6.544;2022-10-16T17:09:28;12.80;99.90
60039;DHT22;45916;52.734;6.544;2022-10-16T17:11:56;12.80;99.90
60039;DHT22;45916;52.734;6.544;2022-10-16T17:14:22;12.70;99.90
60039;DHT22;45916;52.734;6.544;2022-10-16T17:16:48;12.60;99.90
60039;DHT22;45916;52.734;6.544;2022-10-16T17:19:16;12.60;99.90
60039;DHT22;45916;52.734;6.544;2022-10-16T17:21:42;12.40;99.90
60039;DHT22;45916;52.734;6.544;2022-10-16T17:24:08;12.30;99.90
60039;DHT22;45916;52.734;6.544;2022-10-16T17:26:35;12.30;99.90
60039;DHT22;45916;52.734;6.544;2022-10-16T17:29:06;12.20;99.90
60039;DHT22;45916;52.734;6.544;2022-10-16T17:31:35;12.10;99.90
60039;DHT22;45916;52.734;6.544;2022-10-16T17:34:04;11.90;99.90
60039;DHT22;45916;52.734;6.544;2022-10-16T17:36:31;11.80;99.90
60039;DHT22;45916;52.734;6.544;2022-10-16T17:39:02;11.70;99.90
60039;DHT22;45916;52.734;6.544;2022-10-16T17:41:29;11.60;99.90
60039;DHT22;45916;52.734;6.544;2022-10-16T17:43:55;11.50;99.90
60039;DHT22;45916;52.734;6.544;2022-10-16T17:46:22;11.50;99.90
60039;DHT22;45916;52.734;6.544;2022-10-16T17:48:50;11.50;99.90
60039;DHT22;45916;52.734;6.544;2022-10-16T17:51:21;11.50;99.90